sensor_id;sensor_type;location;lat;lon;timestamp;pressure;altitude;pressure_sealevel;temperature;humidity
59168;BME280;44948;55.046;73.266;2022-08-24T00:01:52;101514.84;;;6.98;79.39
59168;BME280;44948;55.046;73.266;2022-08-24T00:03:35;101620.34;;;7.64;79.43
59168;BME280;44948;55.046;73.266;2022-08-24T00:05:22;101602.38;;;7.55;79.31
59168;BME280;44948;55.046;73.266;2022-08-24T00:07:05;101605.59;;;7.63;79.12
59168;BME280;44948;55.046;73.266;2022-08-24T00:08:51;101617.28;;;7.76;78.80
59168;BME280;44948;55.046;73.266;2022-08-24T00:10:43;101502.38;;;7.06;77.75
59168;BME280;44948;55.046;73.266;2022-08-24T00:12:32;101606.13;;;7.71;76.83
59168;BME280;44948;55.046;73.266;2022-08-24T00:14:14;101616.50;;;7.74;77.05
59168;BME280;44948;55.046;73.266;2022-08-24T00:16:00;101613.97;;;7.71;76.81
59168;BME280;44948;55.046;73.266;2022-08-24T00:17:44;101597.75;;;7.63;77.28
59168;BME280;44948;55.046;73.266;2022-08-24T00:19:27;101587.53;;;7.57;78.03
59168;BME280;44948;55.046;73.266;2022-08-24T00:21:12;101577.44;;;7.48;78.25
59168;BME280;44948;55.046;73.266;2022-08-24T00:22:57;101606.13;;;7.71;78.80
59168;BME280;44948;55.046;73.266;2022-08-24T00:24:43;101602.53;;;7.75;79.59
59168;BME280;44948;55.046;73.266;2022-08-24T00:26:28;101598.16;;;7.76;78.98
59168;BME280;44948;55.046;73.266;2022-08-24T00:28:13;101532.03;;;7.52;78.49
59168;BME280;44948;55.046;73.266;2022-08-24T00:29:56;101624.25;;;8.21;78.65
59168;BME280;44948;55.046;73.266;2022-08-24T00:31:38;101617.50;;;8.37;77.99
59168;BME280;44948;55.046;73.266;2022-08-24T00:33:24;101611.66;;;8.52;78.31
59168;BME280;44948;55.046;73.266;2022-08-24T00:35:08;101622.31;;;8.68;78.13
59168;BME280;44948;55.046;73.266;2022-08-24T00:36:55;101613.25;;;8.77;77.98
59168;BME280;44948;55.046;73.266;2022-08-24T00:38:43;101611.50;;;8.98;78.33
59168;BME280;44948;55.046;73.266;2022-08-24T00:40:34;101615.78;;;9.19;78.28
59168;BME280;44948;55.046;73.266;2022-08-24T00:42:16;101619.47;;;9.35;77.94
59168;BME280;44948;55.046;73.266;2022-08-24T00:44:02;101624.88;;;9.51;77.88
59168;BME280;44948;55.046;73.266;2022-08-24T00:46:00;101587.44;;;9.49;77.86
59168;BME280;44948;55.046;73.266;2022-08-24T00:48:04;101615.00;;;9.76;77.46
59168;BME280;44948;55.046;73.266;2022-08-24T00:51:44;101588.66;;;9.98;76.95
59168;BME280;44948;55.046;73.266;2022-08-24T00:53:41;101605.53;;;10.29;77.44
59168;BME280;44948;55.046;73.266;2022-08-24T00:55:29;101601.09;;;10.48;77.10
59168;BME280;44948;55.046;73.266;2022-08-24T00:57:19;101603.47;;;10.70;77.02
59168;BME280;44948;55.046;73.266;2022-08-24T00:59:15;101614.50;;;10.95;76.42
59168;BME280;44948;55.046;73.266;2022-08-24T01:01:01;101613.22;;;11.20;76.34
59168;BME280;44948;55.046;73.266;2022-08-24T01:02:49;101616.81;;;11.34;76.08
59168;BME280;44948;55.046;73.266;2022-08-24T01:04:38;101541.25;;;11.07;75.97
59168;BME280;44948;55.046;73.266;2022-08-24T01:06:25;101616.72;;;11.69;75.72
59168;BME280;44948;55.046;73.266;2022-08-24T01:08:14;101615.22;;;11.97;74.61
59168;BME280;44948;55.046;73.266;2022-08-24T01:10:05;101618.28;;;12.20;74.23
59168;BME280;44948;55.046;73.266;2022-08-24T01:11:54;101612.66;;;12.42;73.75
59168;BME280;44948;55.046;73.266;2022-08-24T01:13:38;101618.56;;;12.62;73.27
59168;BME280;44948;55.046;73.266;2022-08-24T01:15:29;101614.34;;;12.73;73.13
59168;BME280;44948;55.046;73.266;2022-08-24T01:17:16;101617.78;;;12.90;72.99
59168;BME280;44948;55.046;73.266;2022-08-24T01:19:53;101622.59;;;12.83;72.32
59168;BME280;44948;55.046;73.266;2022-08-24T01:21:48;101584.88;;;12.82;72.16
59168;BME280;44948;55.046;73.266;2022-08-24T01:23:42;101617.84;;;13.18;71.52
59168;BME280;44948;55.046;73.266;2022-08-24T01:25:29;101527.13;;;12.79;71.30
59168;BME280;44948;55.046;73.266;2022-08-24T01:27:15;101616.03;;;13.49;70.04
59168;BME280;44948;55.046;73.266;2022-08-24T01:29:06;101598.50;;;13.48;70.65
59168;BME280;44948;55.046;73.266;2022-08-24T01:30:52;101546.44;;;13.23;69.83
59168;BME280;44948;55.046;73.266;2022-08-24T01:32:38;101629.94;;;13.79;69.65
59168;BME280;44948;55.046;73.266;2022-08-24T01:34:23;101615.59;;;13.83;69.37
59168;BME280;44948;55.046;73.266;2022-08-24T01:38:03;101616.53;;;13.96;68.51
59168;BME280;44948;55.046;73.266;2022-08-24T01:39:49;101607.47;;;14.00;68.05
59168;BME280;44948;55.046;73.266;2022-08-24T01:41:36;101598.16;;;13.95;67.89
59168;BME280;44948;55.046;73.266;2022-08-24T01:43:20;101556.69;;;13.70;67.64
59168;BME280;44948;55.046;73.266;2022-08-24T01:45:06;101614.78;;;14.10;67.96
59168;BME280;44948;55.046;73.266;2022-08-24T01:46:51;101600.00;;;14.07;67.47
59168;BME280;44948;55.046;73.266;2022-08-24T01:48:36;101616.84;;;14.19;66.97
59168;BME280;44948;55.046;73.266;2022-08-24T01:50:21;101603.75;;;14.17;65.97
59168;BME280;44948;55.046;73.266;2022-08-24T01:52:11;101610.50;;;14.21;65.52
59168;BME280;44948;55.046;73.266;2022-08-24T01:53:54;101613.06;;;14.23;65.91
59168;BME280;44948;55.046;73.266;2022-08-24T01:55:40;101599.41;;;14.16;64.92
59168;BME280;44948;55.046;73.266;2022-08-24T01:57:24;101610.63;;;14.20;61.85
59168;BME280;44948;55.046;73.266;2022-08-24T01:59:07;101619.31;;;14.08;61.12
59168;BME280;44948;55.046;73.266;2022-08-24T02:00:49;101575.34;;;13.67;61.82
59168;BME280;44948;55.046;73.266;2022-08-24T02:02:34;101610.63;;;13.79;60.96
59168;BME280;44948;55.046;73.266;2022-08-24T02:04:17;101563.84;;;13.39;62.58
59168;BME280;44948;55.046;73.266;2022-08-24T02:06:02;101605.47;;;13.63;63.25
59168;BME280;44948;55.046;73.266;2022-08-24T02:07:46;101570.03;;;13.38;63.43
59168;BME280;44948;55.046;73.266;2022-08-24T02:09:29;101555.56;;;13.31;64.16
59168;BME280;44948;55.046;73.266;2022-08-24T02:11:11;101606.66;;;13.71;63.60
59168;BME280;44948;55.046;73.266;2022-08-24T02:12:56;101606.75;;;13.84;64.52
59168;BME280;44948;55.046;73.266;2022-08-24T02:14:45;101586.09;;;13.91;64.28
59168;BME280;44948;55.046;73.266;2022-08-24T02:16:28;101583.69;;;14.15;62.46
59168;BME280;44948;55.046;73.266;2022-08-24T02:18:13;101592.72;;;14.38;62.33
59168;BME280;44948;55.046;73.266;2022-08-24T02:19:55;101606.28;;;14.73;62.19
59168;BME280;44948;55.046;73.266;2022-08-24T02:21:40;101606.31;;;14.98;60.67
59168;BME280;44948;55.046;73.266;2022-08-24T02:23:22;101614.34;;;15.22;62.22
59168;BME280;44948;55.046;73.266;2022-08-24T02:25:09;101568.13;;;15.28;61.35
59168;BME280;44948;55.046;73.266;2022-08-24T02:26:51;101547.41;;;15.34;59.44
59168;BME280;44948;55.046;73.266;2022-08-24T02:28:35;101619.97;;;16.05;60.49
59168;BME280;44948;55.046;73.266;2022-08-24T02:30:18;101616.47;;;16.28;58.13
59168;BME280;44948;55.046;73.266;2022-08-24T02:32:00;101613.38;;;16.10;59.09
59168;BME280;44948;55.046;73.266;2022-08-24T02:33:42;101613.22;;;16.49;56.65
59168;BME280;44948;55.046;73.266;2022-08-24T02:35:27;101607.38;;;16.67;55.43
59168;BME280;44948;55.046;73.266;2022-08-24T02:37:10;101593.56;;;16.75;55.41
59168;BME280;44948;55.046;73.266;2022-08-24T02:38:54;101583.25;;;16.83;55.00
59168;BME280;44948;55.046;73.266;2022-08-24T02:40:37;101607.91;;;17.19;55.60
59168;BME280;44948;55.046;73.266;2022-08-24T02:42:20;101603.75;;;16.92;56.54
59168;BME280;44948;55.046;73.266;2022-08-24T02:44:02;101606.47;;;17.37;55.04
59168;BME280;44948;55.046;73.266;2022-08-24T02:45:47;101579.94;;;17.48;55.88
59168;BME280;44948;55.046;73.266;2022-08-24T02:47:30;101607.06;;;17.85;54.68
59168;BME280;44948;55.046;73.266;2022-08-24T02:49:13;101608.50;;;18.01;54.47
59168;BME280;44948;55.046;73.266;2022-08-24T02:50:56;101547.84;;;17.85;54.06
59168;BME280;44948;55.046;73.266;2022-08-24T02:52:39;101607.69;;;18.32;53.86
59168;BME280;44948;55.046;73.266;2022-08-24T02:54:22;101591.09;;;18.40;53.28
59168;BME280;44948;55.046;73.266;2022-08-24T02:56:06;101583.13;;;18.40;52.75
59168;BME280;44948;55.046;73.266;2022-08-24T02:57:49;101611.09;;;18.55;51.85
59168;BME280;44948;55.046;73.266;2022-08-24T02:59:32;101614.06;;;18.30;53.90
59168;BME280;44948;55.046;73.266;2022-08-24T03:01:15;101603.09;;;18.66;52.05
59168;BME280;44948;55.046;73.266;2022-08-24T03:02:58;101560.50;;;18.57;52.24
59168;BME280;44948;55.046;73.266;2022-08-24T03:04:43;101571.19;;;18.87;51.58
59168;BME280;44948;55.046;73.266;2022-08-24T03:06:25;101608.13;;;19.11;50.85
59168;BME280;44948;55.046;73.266;2022-08-24T03:08:08;101571.50;;;18.94;49.06
59168;BME280;44948;55.046;73.266;2022-08-24T03:09:50;101604.56;;;19.22;50.67
59168;BME280;44948;55.046;73.266;2022-08-24T03:11:36;101596.19;;;19.26;50.60
59168;BME280;44948;55.046;73.266;2022-08-24T03:13:18;101586.09;;;19.30;50.69
59168;BME280;44948;55.046;73.266;2022-08-24T03:15:02;101605.31;;;19.64;50.89
59168;BME280;44948;55.046;73.266;2022-08-24T03:16:45;101551.66;;;19.49;50.01
59168;BME280;44948;55.046;73.266;2022-08-24T03:18:27;101600.34;;;19.90;50.23
59168;BME280;44948;55.046;73.266;2022-08-24T03:20:13;101606.56;;;20.10;49.75
59168;BME280;44948;55.046;73.266;2022-08-24T03:21:56;101602.09;;;20.20;49.78
59168;BME280;44948;55.046;73.266;2022-08-24T03:23:40;101602.41;;;20.26;47.97
59168;BME280;44948;55.046;73.266;2022-08-24T03:25:23;101599.75;;;20.36;48.98
59168;BME280;44948;55.046;73.266;2022-08-24T03:27:07;101596.38;;;20.53;47.75
59168;BME280;44948;55.046;73.266;2022-08-24T03:28:50;101597.91;;;20.66;48.65
59168;BME280;44948;55.046;73.266;2022-08-24T03:30:33;101574.06;;;20.64;47.78
59168;BME280;44948;55.046;73.266;2022-08-24T03:32:18;101583.59;;;20.67;46.74
59168;BME280;44948;55.046;73.266;2022-08-24T03:34:01;101596.91;;;20.76;46.19
59168;BME280;44948;55.046;73.266;2022-08-24T03:35:43;101601.25;;;20.77;46.79
59168;BME280;44948;55.046;73.266;2022-08-24T03:37:27;101591.16;;;20.81;46.67
59168;BME280;44948;55.046;73.266;2022-08-24T03:39:09;101596.47;;;20.81;47.00
59168;BME280;44948;55.046;73.266;2022-08-24T03:40:53;101546.16;;;20.58;46.19
59168;BME280;44948;55.046;73.266;2022-08-24T03:42:36;101542.38;;;20.51;45.79
59168;BME280;44948;55.046;73.266;2022-08-24T03:44:18;101564.53;;;20.61;45.78
59168;BME280;44948;55.046;73.266;2022-08-24T03:46:03;101587.50;;;20.82;46.23
59168;BME280;44948;55.046;73.266;2022-08-24T03:47:46;101601.91;;;20.99;46.06
59168;BME280;44948;55.046;73.266;2022-08-24T03:49:29;101581.06;;;20.84;45.78
59168;BME280;44948;55.046;73.266;2022-08-24T03:51:14;101597.00;;;21.13;46.28
59168;BME280;44948;55.046;73.266;2022-08-24T03:52:56;101568.34;;;21.15;45.06
59168;BME280;44948;55.046;73.266;2022-08-24T03:54:39;101588.31;;;21.02;46.74
59168;BME280;44948;55.046;73.266;2022-08-24T03:56:22;101582.34;;;21.37;44.37
59168;BME280;44948;55.046;73.266;2022-08-24T03:58:05;101594.47;;;21.49;44.86
59168;BME280;44948;55.046;73.266;2022-08-24T03:59:47;101586.66;;;21.65;43.22
59168;BME280;44948;55.046;73.266;2022-08-24T04:01:30;101579.84;;;21.80;42.80
59168;BME280;44948;55.046;73.266;2022-08-24T04:03:13;101560.31;;;21.80;43.98
59168;BME280;44948;55.046;73.266;2022-08-24T04:04:55;101584.03;;;22.10;43.74
59168;BME280;44948;55.046;73.266;2022-08-24T04:06:40;101584.66;;;22.22;42.02
59168;BME280;44948;55.046;73.266;2022-08-24T04:08:25;101558.53;;;22.16;41.36
59168;BME280;44948;55.046;73.266;2022-08-24T04:10:08;101569.38;;;22.32;42.49
59168;BME280;44948;55.046;73.266;2022-08-24T04:11:53;101576.84;;;22.47;41.67
59168;BME280;44948;55.046;73.266;2022-08-24T04:13:38;101581.03;;;22.67;42.45
59168;BME280;44948;55.046;73.266;2022-08-24T04:15:21;101573.19;;;22.65;42.12
59168;BME280;44948;55.046;73.266;2022-08-24T04:17:06;101581.66;;;22.79;41.51
59168;BME280;44948;55.046;73.266;2022-08-24T04:18:57;101570.53;;;22.91;40.84
59168;BME280;44948;55.046;73.266;2022-08-24T04:20:41;101568.97;;;23.07;42.49
59168;BME280;44948;55.046;73.266;2022-08-24T04:22:27;101577.03;;;23.15;40.70
59168;BME280;44948;55.046;73.266;2022-08-24T04:24:10;101556.53;;;22.97;40.69
59168;BME280;44948;55.046;73.266;2022-08-24T04:25:53;101577.50;;;22.58;41.23
59168;BME280;44948;55.046;73.266;2022-08-24T04:27:35;101555.22;;;22.76;41.80
59168;BME280;44948;55.046;73.266;2022-08-24T04:29:19;101562.03;;;22.96;40.94
59168;BME280;44948;55.046;73.266;2022-08-24T04:31:06;101582.94;;;23.26;41.01
59168;BME280;44948;55.046;73.266;2022-08-24T04:32:55;101587.09;;;23.47;42.19
59168;BME280;44948;55.046;73.266;2022-08-24T04:34:39;101571.22;;;23.53;40.19
59168;BME280;44948;55.046;73.266;2022-08-24T04:36:22;101570.31;;;23.37;40.03
59168;BME280;44948;55.046;73.266;2022-08-24T04:38:07;101574.69;;;23.46;39.18
59168;BME280;44948;55.046;73.266;2022-08-24T04:39:52;101566.19;;;23.50;40.18
59168;BME280;44948;55.046;73.266;2022-08-24T04:41:39;101566.56;;;23.64;40.26
59168;BME280;44948;55.046;73.266;2022-08-24T04:43:24;101570.47;;;23.77;39.70
59168;BME280;44948;55.046;73.266;2022-08-24T04:45:10;101573.47;;;23.82;40.57
59168;BME280;44948;55.046;73.266;2022-08-24T04:46:53;101562.47;;;23.94;39.49
59168;BME280;44948;55.046;73.266;2022-08-24T04:48:35;101561.28;;;23.96;38.47
59168;BME280;44948;55.046;73.266;2022-08-24T04:50:17;101490.41;;;23.58;38.48
59168;BME280;44948;55.046;73.266;2022-08-24T04:52:05;101545.88;;;23.98;38.64
59168;BME280;44948;55.046;73.266;2022-08-24T04:53:49;101519.72;;;23.84;37.52
59168;BME280;44948;55.046;73.266;2022-08-24T04:55:32;101562.22;;;23.63;39.65
59168;BME280;44948;55.046;73.266;2022-08-24T04:57:17;101558.56;;;23.80;39.03
59168;BME280;44948;55.046;73.266;2022-08-24T04:59:00;101552.91;;;23.91;39.95
59168;BME280;44948;55.046;73.266;2022-08-24T05:00:43;101559.53;;;24.21;38.73
59168;BME280;44948;55.046;73.266;2022-08-24T05:02:28;101540.75;;;24.45;38.12
59168;BME280;44948;55.046;73.266;2022-08-24T05:04:12;101521.16;;;24.45;37.66
59168;BME280;44948;55.046;73.266;2022-08-24T05:05:55;101549.47;;;24.80;35.79
59168;BME280;44948;55.046;73.266;2022-08-24T05:07:38;101543.59;;;24.76;36.01
59168;BME280;44948;55.046;73.266;2022-08-24T05:09:20;101540.56;;;24.88;37.99
59168;BME280;44948;55.046;73.266;2022-08-24T05:11:04;101545.06;;;24.95;37.55
59168;BME280;44948;55.046;73.266;2022-08-24T05:12:49;101534.28;;;25.12;37.68
59168;BME280;44948;55.046;73.266;2022-08-24T05:14:32;101543.44;;;25.42;38.30
59168;BME280;44948;55.046;73.266;2022-08-24T05:16:15;101538.50;;;25.06;38.36
59168;BME280;44948;55.046;73.266;2022-08-24T05:18:01;101539.84;;;25.49;36.65
59168;BME280;44948;55.046;73.266;2022-08-24T05:19:44;101533.63;;;25.57;35.58
59168;BME280;44948;55.046;73.266;2022-08-24T05:21:26;101518.69;;;25.54;36.18
59168;BME280;44948;55.046;73.266;2022-08-24T05:23:11;101528.19;;;25.65;35.58
59168;BME280;44948;55.046;73.266;2022-08-24T05:24:57;101478.50;;;25.38;36.46
59168;BME280;44948;55.046;73.266;2022-08-24T05:26:40;101532.97;;;25.55;34.82
59168;BME280;44948;55.046;73.266;2022-08-24T05:28:22;101490.13;;;25.22;36.40
59168;BME280;44948;55.046;73.266;2022-08-24T05:30:04;101499.75;;;25.48;35.27
59168;BME280;44948;55.046;73.266;2022-08-24T05:31:47;101471.50;;;25.52;36.77
59168;BME280;44948;55.046;73.266;2022-08-24T05:33:31;101527.81;;;25.99;35.78
59168;BME280;44948;55.046;73.266;2022-08-24T05:35:14;101522.97;;;25.94;34.93
59168;BME280;44948;55.046;73.266;2022-08-24T05:36:56;101524.75;;;25.79;34.11
59168;BME280;44948;55.046;73.266;2022-08-24T05:38:54;101509.53;;;25.41;34.69
59168;BME280;44948;55.046;73.266;2022-08-24T05:40:36;101523.91;;;25.56;35.85
59168;BME280;44948;55.046;73.266;2022-08-24T05:42:20;101530.56;;;25.60;35.71
59168;BME280;44948;55.046;73.266;2022-08-24T05:44:03;101530.50;;;25.68;35.61
59168;BME280;44948;55.046;73.266;2022-08-24T05:45:46;101520.22;;;25.80;34.25
59168;BME280;44948;55.046;73.266;2022-08-24T05:47:28;101476.66;;;25.61;36.87
59168;BME280;44948;55.046;73.266;2022-08-24T05:49:16;101493.81;;;25.83;35.76
59168;BME280;44948;55.046;73.266;2022-08-24T05:50:58;101520.25;;;26.03;34.36
59168;BME280;44948;55.046;73.266;2022-08-24T05:52:46;101519.16;;;26.12;32.84
59168;BME280;44948;55.046;73.266;2022-08-24T05:54:29;101518.84;;;25.53;34.67
59168;BME280;44948;55.046;73.266;2022-08-24T05:56:16;101500.84;;;25.84;35.35
59168;BME280;44948;55.046;73.266;2022-08-24T05:57:59;101472.31;;;25.83;34.49
59168;BME280;44948;55.046;73.266;2022-08-24T05:59:41;101464.69;;;25.72;33.22
59168;BME280;44948;55.046;73.266;2022-08-24T06:01:29;101510.84;;;25.98;33.04
59168;BME280;44948;55.046;73.266;2022-08-24T06:03:12;101512.03;;;26.19;33.85
59168;BME280;44948;55.046;73.266;2022-08-24T06:05:01;101450.28;;;25.65;34.14
59168;BME280;44948;55.046;73.266;2022-08-24T06:06:44;101488.44;;;25.83;33.93
59168;BME280;44948;55.046;73.266;2022-08-24T06:08:26;101502.44;;;25.48;34.32
59168;BME280;44948;55.046;73.266;2022-08-24T06:10:08;101452.69;;;25.52;33.71
59168;BME280;44948;55.046;73.266;2022-08-24T06:11:52;101494.78;;;25.90;34.35
59168;BME280;44948;55.046;73.266;2022-08-24T06:13:38;101467.88;;;25.67;34.80
59168;BME280;44948;55.046;73.266;2022-08-24T06:15:20;101487.19;;;26.17;35.21
59168;BME280;44948;55.046;73.266;2022-08-24T06:17:05;101490.59;;;26.48;31.66
59168;BME280;44948;55.046;73.266;2022-08-24T06:18:49;101492.91;;;26.51;31.36
59168;BME280;44948;55.046;73.266;2022-08-24T06:20:37;101482.13;;;26.74;32.23
59168;BME280;44948;55.046;73.266;2022-08-24T06:22:20;101457.41;;;26.56;32.44
59168;BME280;44948;55.046;73.266;2022-08-24T06:24:05;101468.25;;;26.63;32.44
59168;BME280;44948;55.046;73.266;2022-08-24T06:25:48;101480.72;;;26.64;32.73
59168;BME280;44948;55.046;73.266;2022-08-24T06:27:49;101474.97;;;26.67;31.87
59168;BME280;44948;55.046;73.266;2022-08-24T06:29:34;101477.47;;;26.68;31.96
59168;BME280;44948;55.046;73.266;2022-08-24T06:31:38;101477.66;;;26.67;32.79
59168;BME280;44948;55.046;73.266;2022-08-24T06:33:22;101480.16;;;26.83;32.62
59168;BME280;44948;55.046;73.266;2022-08-24T06:35:08;101479.25;;;26.91;32.94
59168;BME280;44948;55.046;73.266;2022-08-24T06:36:51;101475.34;;;26.78;33.30
59168;BME280;44948;55.046;73.266;2022-08-24T06:38:34;101470.69;;;26.87;32.81
59168;BME280;44948;55.046;73.266;2022-08-24T06:40:19;101465.81;;;26.91;31.38
59168;BME280;44948;55.046;73.266;2022-08-24T06:42:01;101465.41;;;26.94;32.21
59168;BME280;44948;55.046;73.266;2022-08-24T06:43:45;101472.22;;;26.90;32.53
59168;BME280;44948;55.046;73.266;2022-08-24T06:45:29;101474.59;;;26.99;32.73
59168;BME280;44948;55.046;73.266;2022-08-24T06:47:12;101448.25;;;26.80;32.30
59168;BME280;44948;55.046;73.266;2022-08-24T06:48:55;101443.78;;;26.87;32.42
59168;BME280;44948;55.046;73.266;2022-08-24T06:50:38;101433.97;;;26.79;32.92
59168;BME280;44948;55.046;73.266;2022-08-24T06:52:21;101477.94;;;26.86;32.89
59168;BME280;44948;55.046;73.266;2022-08-24T06:54:04;101461.81;;;26.72;31.70
59168;BME280;44948;55.046;73.266;2022-08-24T06:55:50;101468.19;;;26.85;33.06
59168;BME280;44948;55.046;73.266;2022-08-24T06:57:33;101431.47;;;26.63;32.35
59168;BME280;44948;55.046;73.266;2022-08-24T06:59:16;101443.63;;;26.74;31.26
59168;BME280;44948;55.046;73.266;2022-08-24T07:01:10;101458.75;;;26.75;30.58
59168;BME280;44948;55.046;73.266;2022-08-24T07:02:53;101441.66;;;26.68;30.86
59168;BME280;44948;55.046;73.266;2022-08-24T07:04:35;101450.03;;;26.35;30.71
59168;BME280;44948;55.046;73.266;2022-08-24T07:06:21;101440.59;;;26.39;33.82
59168;BME280;44948;55.046;73.266;2022-08-24T07:08:06;101453.81;;;26.64;32.91
59168;BME280;44948;55.046;73.266;2022-08-24T07:09:49;101447.97;;;26.75;32.46
59168;BME280;44948;55.046;73.266;2022-08-24T07:11:31;101447.69;;;26.84;32.99
59168;BME280;44948;55.046;73.266;2022-08-24T07:13:16;101451.50;;;26.90;32.29
59168;BME280;44948;55.046;73.266;2022-08-24T07:14:59;101425.88;;;26.79;31.59
59168;BME280;44948;55.046;73.266;2022-08-24T07:16:44;101427.28;;;26.90;33.72
59168;BME280;44948;55.046;73.266;2022-08-24T07:18:27;101431.13;;;27.02;31.77
59168;BME280;44948;55.046;73.266;2022-08-24T07:20:10;101437.03;;;26.91;31.97
59168;BME280;44948;55.046;73.266;2022-08-24T07:22:16;101435.22;;;26.98;31.94
59168;BME280;44948;55.046;73.266;2022-08-24T07:24:00;101431.03;;;27.10;32.91
59168;BME280;44948;55.046;73.266;2022-08-24T07:25:48;101415.13;;;27.15;31.72
59168;BME280;44948;55.046;73.266;2022-08-24T07:27:32;101426.63;;;27.39;33.03
59168;BME280;44948;55.046;73.266;2022-08-24T07:29:18;101428.38;;;27.46;32.82
59168;BME280;44948;55.046;73.266;2022-08-24T07:31:03;101424.63;;;27.11;33.62
59168;BME280;44948;55.046;73.266;2022-08-24T07:32:52;101406.63;;;27.12;33.88
59168;BME280;44948;55.046;73.266;2022-08-24T07:34:35;101419.88;;;27.28;33.60
59168;BME280;44948;55.046;73.266;2022-08-24T07:36:17;101415.94;;;26.80;34.19
59168;BME280;44948;55.046;73.266;2022-08-24T07:38:00;101419.50;;;27.16;33.09
59168;BME280;44948;55.046;73.266;2022-08-24T07:39:42;101416.31;;;26.62;33.59
59168;BME280;44948;55.046;73.266;2022-08-24T07:41:26;101409.06;;;26.92;34.04
59168;BME280;44948;55.046;73.266;2022-08-24T07:43:09;101411.44;;;27.02;33.68
59168;BME280;44948;55.046;73.266;2022-08-24T07:44:51;101381.38;;;26.98;33.42
59168;BME280;44948;55.046;73.266;2022-08-24T07:46:37;101407.25;;;27.14;33.92
59168;BME280;44948;55.046;73.266;2022-08-24T07:48:20;101404.63;;;27.21;33.67
59168;BME280;44948;55.046;73.266;2022-08-24T07:50:05;101400.06;;;27.21;33.29
59168;BME280;44948;55.046;73.266;2022-08-24T07:51:47;101375.34;;;26.96;34.22
59168;BME280;44948;55.046;73.266;2022-08-24T07:53:34;101406.25;;;27.00;33.12
59168;BME280;44948;55.046;73.266;2022-08-24T07:55:16;101381.59;;;26.82;33.35
59168;BME280;44948;55.046;73.266;2022-08-24T07:56:59;101396.19;;;26.43;33.84
59168;BME280;44948;55.046;73.266;2022-08-24T07:58:43;101394.25;;;26.67;34.22
59168;BME280;44948;55.046;73.266;2022-08-24T08:00:28;101393.78;;;26.78;32.71
59168;BME280;44948;55.046;73.266;2022-08-24T08:02:15;101383.09;;;26.70;33.43
59168;BME280;44948;55.046;73.266;2022-08-24T08:04:03;101369.72;;;26.62;34.67
59168;BME280;44948;55.046;73.266;2022-08-24T08:05:45;101388.44;;;25.73;34.84
59168;BME280;44948;55.046;73.266;2022-08-24T08:07:31;101388.00;;;25.61;34.67
59168;BME280;44948;55.046;73.266;2022-08-24T08:09:13;101391.44;;;25.24;34.23
59168;BME280;44948;55.046;73.266;2022-08-24T08:10:56;101386.63;;;25.12;36.27
59168;BME280;44948;55.046;73.266;2022-08-24T08:12:38;101381.13;;;24.74;36.64
59168;BME280;44948;55.046;73.266;2022-08-24T08:14:20;101357.16;;;24.72;36.17
59168;BME280;44948;55.046;73.266;2022-08-24T08:16:04;101378.31;;;24.51;36.22
59168;BME280;44948;55.046;73.266;2022-08-24T08:17:47;101386.03;;;24.54;37.40
59168;BME280;44948;55.046;73.266;2022-08-24T08:19:29;101271.22;;;24.02;37.25
59168;BME280;44948;55.046;73.266;2022-08-24T08:21:12;101367.72;;;24.74;37.21
59168;BME280;44948;55.046;73.266;2022-08-24T08:23:17;101380.94;;;24.75;36.75
59168;BME280;44948;55.046;73.266;2022-08-24T08:25:37;101377.25;;;24.76;36.36
59168;BME280;44948;55.046;73.266;2022-08-24T08:27:27;101342.56;;;24.75;36.37
59168;BME280;44948;55.046;73.266;2022-08-24T08:29:10;101373.06;;;24.74;36.86
59168;BME280;44948;55.046;73.266;2022-08-24T08:30:56;101364.97;;;24.82;37.36
59168;BME280;44948;55.046;73.266;2022-08-24T08:32:38;101358.97;;;25.11;38.00
59168;BME280;44948;55.046;73.266;2022-08-24T08:34:21;101295.59;;;25.02;36.73
59168;BME280;44948;55.046;73.266;2022-08-24T08:36:10;101338.44;;;25.64;36.20
59168;BME280;44948;55.046;73.266;2022-08-24T08:37:59;101340.34;;;25.78;36.55
59168;BME280;44948;55.046;73.266;2022-08-24T08:39:43;101353.56;;;26.03;34.20
59168;BME280;44948;55.046;73.266;2022-08-24T08:43:45;101362.22;;;26.13;35.75
59168;BME280;44948;55.046;73.266;2022-08-24T08:50:04;101338.25;;;26.03;36.79
59168;BME280;44948;55.046;73.266;2022-08-24T08:51:57;101350.81;;;26.25;36.65
59168;BME280;44948;55.046;73.266;2022-08-24T08:54:10;101330.59;;;26.15;35.14
59168;BME280;44948;55.046;73.266;2022-08-24T09:00:18;101361.19;;;26.14;35.71
59168;BME280;44948;55.046;73.266;2022-08-24T09:07:05;101350.59;;;25.60;35.17
59168;BME280;44948;55.046;73.266;2022-08-24T09:13:10;101347.53;;;26.01;37.13
59168;BME280;44948;55.046;73.266;2022-08-24T09:23:21;101342.63;;;26.19;36.48
59168;BME280;44948;55.046;73.266;2022-08-24T09:25:32;101336.91;;;26.22;36.61
59168;BME280;44948;55.046;73.266;2022-08-24T09:30:13;101326.88;;;26.01;35.38
59168;BME280;44948;55.046;73.266;2022-08-24T09:34:17;101319.13;;;25.83;33.69
59168;BME280;44948;55.046;73.266;2022-08-24T09:43:06;101323.88;;;24.90;35.66
59168;BME280;44948;55.046;73.266;2022-08-24T09:49:16;101312.53;;;25.02;38.84
59168;BME280;44948;55.046;73.266;2022-08-24T09:51:27;101313.22;;;25.27;35.88
59168;BME280;44948;55.046;73.266;2022-08-24T10:00:27;101302.81;;;25.24;36.56
59168;BME280;44948;55.046;73.266;2022-08-24T10:07:57;101293.34;;;25.59;36.86